sensor_id;sensor_type;location;lat;lon;timestamp;P1;durP1;ratioP1;P2;durP2;ratioP2
51566;SDS011;37657;53.182;5.638;2022-09-09T00:01:02;11.85;;;6.82;;
51566;SDS011;37657;53.182;5.638;2022-09-09T00:03:40;10.73;;;6.97;;
51566;SDS011;37657;53.182;5.638;2022-09-09T00:06:14;9.68;;;5.85;;
51566;SDS011;37657;53.182;5.638;2022-09-09T00:08:57;13.88;;;8.32;;
51566;SDS011;37657;53.182;5.638;2022-09-09T00:11:26;10.82;;;6.35;;
51566;SDS011;37657;53.182;5.638;2022-09-09T00:14:03;11.77;;;8.05;;
51566;SDS011;37657;53.182;5.638;2022-09-09T00:16:36;10.52;;;8.48;;
51566;SDS011;37657;53.182;5.638;2022-09-09T00:27:11;9.70;;;8.38;;
51566;SDS011;37657;53.182;5.638;2022-09-09T00:29:51;17.80;;;9.25;;
51566;SDS011;37657;53.182;5.638;2022-09-09T00:32:24;12.27;;;8.18;;
51566;SDS011;37657;53.182;5.638;2022-09-09T00:34:55;10.57;;;8.15;;
51566;SDS011;37657;53.182;5.638;2022-09-09T00:37:26;9.05;;;7.45;;
51566;SDS011;37657;53.182;5.638;2022-09-09T00:39:57;10.35;;;7.40;;
51566;SDS011;37657;53.182;5.638;2022-09-09T00:42:43;17.77;;;8.60;;
51566;SDS011;37657;53.182;5.638;2022-09-09T00:47:45;8.82;;;7.07;;
51566;SDS011;37657;53.182;5.638;2022-09-09T00:50:33;13.63;;;8.15;;
51566;SDS011;37657;53.182;5.638;2022-09-09T00:58:42;8.68;;;6.53;;
51566;SDS011;37657;53.182;5.638;2022-09-09T01:01:11;7.68;;;6.72;;
51566;SDS011;37657;53.182;5.638;2022-09-09T01:04:38;13.02;;;7.78;;
51566;SDS011;37657;53.182;5.638;2022-09-09T01:06:49;11.60;;;8.13;;
51566;SDS011;37657;53.182;5.638;2022-09-09T01:09:38;8.57;;;7.70;;
51566;SDS011;37657;53.182;5.638;2022-09-09T01:14:42;15.55;;;8.75;;
51566;SDS011;37657;53.182;5.638;2022-09-09T01:28:26;12.73;;;7.97;;
51566;SDS011;37657;53.182;5.638;2022-09-09T01:30:53;9.85;;;6.38;;
51566;SDS011;37657;53.182;5.638;2022-09-09T01:33:21;7.70;;;6.82;;
51566;SDS011;37657;53.182;5.638;2022-09-09T01:38:20;8.65;;;7.85;;
51566;SDS011;37657;53.182;5.638;2022-09-09T01:40:46;7.90;;;5.57;;
51566;SDS011;37657;53.182;5.638;2022-09-09T01:43:12;9.50;;;6.72;;
51566;SDS011;37657;53.182;5.638;2022-09-09T01:45:38;10.98;;;6.28;;
51566;SDS011;37657;53.182;5.638;2022-09-09T01:48:05;9.75;;;6.80;;
51566;SDS011;37657;53.182;5.638;2022-09-09T01:50:31;8.77;;;6.50;;
51566;SDS011;37657;53.182;5.638;2022-09-09T01:52:57;12.57;;;7.25;;
51566;SDS011;37657;53.182;5.638;2022-09-09T01:55:31;12.40;;;8.38;;
51566;SDS011;37657;53.182;5.638;2022-09-09T01:58:10;11.23;;;6.93;;
51566;SDS011;37657;53.182;5.638;2022-09-09T02:00:52;7.82;;;6.88;;
51566;SDS011;37657;53.182;5.638;2022-09-09T02:03:33;10.70;;;6.97;;
51566;SDS011;37657;53.182;5.638;2022-09-09T02:08:52;8.70;;;6.43;;
51566;SDS011;37657;53.182;5.638;2022-09-09T02:11:22;13.88;;;7.32;;
51566;SDS011;37657;53.182;5.638;2022-09-09T02:13:51;9.15;;;6.88;;
51566;SDS011;37657;53.182;5.638;2022-09-09T02:16:23;12.32;;;8.43;;
51566;SDS011;37657;53.182;5.638;2022-09-09T02:21:25;7.00;;;6.10;;
51566;SDS011;37657;53.182;5.638;2022-09-09T02:23:55;9.27;;;6.68;;
51566;SDS011;37657;53.182;5.638;2022-09-09T02:26:24;9.73;;;5.80;;
51566;SDS011;37657;53.182;5.638;2022-09-09T02:28:51;9.88;;;6.40;;
51566;SDS011;37657;53.182;5.638;2022-09-09T02:31:21;16.63;;;6.55;;
51566;SDS011;37657;53.182;5.638;2022-09-09T02:33:51;8.35;;;6.85;;
51566;SDS011;37657;53.182;5.638;2022-09-09T02:36:23;10.77;;;8.35;;
51566;SDS011;37657;53.182;5.638;2022-09-09T02:38:50;9.13;;;6.25;;
51566;SDS011;37657;53.182;5.638;2022-09-09T02:41:30;12.07;;;7.47;;
51566;SDS011;37657;53.182;5.638;2022-09-09T02:43:58;9.07;;;6.70;;
51566;SDS011;37657;53.182;5.638;2022-09-09T02:52:02;12.07;;;7.22;;
51566;SDS011;37657;53.182;5.638;2022-09-09T02:54:37;8.95;;;6.32;;
51566;SDS011;37657;53.182;5.638;2022-09-09T02:57:06;11.63;;;7.95;;
51566;SDS011;37657;53.182;5.638;2022-09-09T02:59:39;10.45;;;7.82;;
51566;SDS011;37657;53.182;5.638;2022-09-09T03:02:06;9.02;;;6.07;;
51566;SDS011;37657;53.182;5.638;2022-09-09T03:04:32;11.55;;;8.15;;
51566;SDS011;37657;53.182;5.638;2022-09-09T03:06:58;9.85;;;6.15;;
51566;SDS011;37657;53.182;5.638;2022-09-09T03:09:25;9.27;;;6.55;;
51566;SDS011;37657;53.182;5.638;2022-09-09T03:11:53;8.20;;;7.40;;
51566;SDS011;37657;53.182;5.638;2022-09-09T03:14:20;11.75;;;8.40;;
51566;SDS011;37657;53.182;5.638;2022-09-09T03:16:49;15.40;;;8.40;;
51566;SDS011;37657;53.182;5.638;2022-09-09T03:19:15;8.45;;;6.07;;
51566;SDS011;37657;53.182;5.638;2022-09-09T03:21:41;9.63;;;7.03;;
51566;SDS011;37657;53.182;5.638;2022-09-09T03:24:06;8.60;;;7.25;;
51566;SDS011;37657;53.182;5.638;2022-09-09T03:26:32;7.47;;;6.43;;
51566;SDS011;37657;53.182;5.638;2022-09-09T03:28:58;10.35;;;7.13;;
51566;SDS011;37657;53.182;5.638;2022-09-09T03:31:25;7.93;;;5.97;;
51566;SDS011;37657;53.182;5.638;2022-09-09T03:33:54;9.50;;;6.90;;
51566;SDS011;37657;53.182;5.638;2022-09-09T03:36:23;7.07;;;6.38;;
51566;SDS011;37657;53.182;5.638;2022-09-09T03:38:49;8.50;;;6.35;;
51566;SDS011;37657;53.182;5.638;2022-09-09T03:41:15;10.52;;;6.38;;
51566;SDS011;37657;53.182;5.638;2022-09-09T03:43:41;9.10;;;7.00;;
51566;SDS011;37657;53.182;5.638;2022-09-09T03:46:06;9.75;;;7.25;;
51566;SDS011;37657;53.182;5.638;2022-09-09T03:48:32;9.93;;;6.72;;
51566;SDS011;37657;53.182;5.638;2022-09-09T03:50:58;10.07;;;7.07;;
51566;SDS011;37657;53.182;5.638;2022-09-09T03:53:25;9.85;;;6.78;;
51566;SDS011;37657;53.182;5.638;2022-09-09T03:55:52;15.98;;;8.15;;
51566;SDS011;37657;53.182;5.638;2022-09-09T03:58:24;9.60;;;7.32;;
51566;SDS011;37657;53.182;5.638;2022-09-09T04:01:02;8.32;;;7.05;;
51566;SDS011;37657;53.182;5.638;2022-09-09T04:03:29;8.60;;;5.90;;
51566;SDS011;37657;53.182;5.638;2022-09-09T04:05:56;10.93;;;6.78;;
51566;SDS011;37657;53.182;5.638;2022-09-09T04:08:23;10.20;;;6.45;;
51566;SDS011;37657;53.182;5.638;2022-09-09T04:10:50;13.63;;;7.32;;
51566;SDS011;37657;53.182;5.638;2022-09-09T04:13:16;7.18;;;6.35;;
51566;SDS011;37657;53.182;5.638;2022-09-09T04:15:43;8.07;;;6.15;;
51566;SDS011;37657;53.182;5.638;2022-09-09T04:18:14;6.10;;;4.90;;
51566;SDS011;37657;53.182;5.638;2022-09-09T04:20:40;9.20;;;5.93;;
51566;SDS011;37657;53.182;5.638;2022-09-09T04:23:05;7.55;;;5.88;;
51566;SDS011;37657;53.182;5.638;2022-09-09T04:25:31;6.35;;;5.70;;
51566;SDS011;37657;53.182;5.638;2022-09-09T04:27:59;11.38;;;4.65;;
51566;SDS011;37657;53.182;5.638;2022-09-09T04:30:24;7.72;;;4.47;;
51566;SDS011;37657;53.182;5.638;2022-09-09T04:32:50;6.13;;;4.70;;
51566;SDS011;37657;53.182;5.638;2022-09-09T04:35:16;6.88;;;4.32;;
51566;SDS011;37657;53.182;5.638;2022-09-09T04:37:42;7.47;;;4.93;;
51566;SDS011;37657;53.182;5.638;2022-09-09T04:40:08;5.95;;;4.05;;
51566;SDS011;37657;53.182;5.638;2022-09-09T04:42:38;7.65;;;6.03;;
51566;SDS011;37657;53.182;5.638;2022-09-09T04:45:05;7.32;;;5.07;;
51566;SDS011;37657;53.182;5.638;2022-09-09T04:47:31;10.43;;;7.38;;
51566;SDS011;37657;53.182;5.638;2022-09-09T04:49:57;7.88;;;6.32;;
51566;SDS011;37657;53.182;5.638;2022-09-09T04:52:23;8.43;;;5.07;;
51566;SDS011;37657;53.182;5.638;2022-09-09T04:54:48;5.60;;;4.38;;
51566;SDS011;37657;53.182;5.638;2022-09-09T04:57:14;5.45;;;4.32;;
51566;SDS011;37657;53.182;5.638;2022-09-09T04:59:40;12.50;;;5.50;;
51566;SDS011;37657;53.182;5.638;2022-09-09T05:02:05;8.35;;;4.65;;
51566;SDS011;37657;53.182;5.638;2022-09-09T05:04:31;8.63;;;5.50;;
51566;SDS011;37657;53.182;5.638;2022-09-09T05:06:58;14.98;;;4.97;;
51566;SDS011;37657;53.182;5.638;2022-09-09T05:09:23;6.45;;;5.40;;
51566;SDS011;37657;53.182;5.638;2022-09-09T05:11:49;7.45;;;5.80;;
51566;SDS011;37657;53.182;5.638;2022-09-09T05:14:15;7.07;;;4.72;;
51566;SDS011;37657;53.182;5.638;2022-09-09T05:16:41;6.43;;;4.80;;
51566;SDS011;37657;53.182;5.638;2022-09-09T05:19:07;10.15;;;5.68;;
51566;SDS011;37657;53.182;5.638;2022-09-09T05:21:33;7.07;;;4.47;;
51566;SDS011;37657;53.182;5.638;2022-09-09T05:23:59;10.18;;;7.22;;
51566;SDS011;37657;53.182;5.638;2022-09-09T05:26:27;9.40;;;5.80;;
51566;SDS011;37657;53.182;5.638;2022-09-09T05:28:54;6.45;;;5.10;;
51566;SDS011;37657;53.182;5.638;2022-09-09T05:31:20;9.05;;;6.00;;
51566;SDS011;37657;53.182;5.638;2022-09-09T05:33:46;10.93;;;6.68;;
51566;SDS011;37657;53.182;5.638;2022-09-09T05:36:15;9.75;;;6.88;;
51566;SDS011;37657;53.182;5.638;2022-09-09T05:38:42;7.40;;;6.22;;
51566;SDS011;37657;53.182;5.638;2022-09-09T05:41:09;12.77;;;7.35;;
51566;SDS011;37657;53.182;5.638;2022-09-09T05:43:36;9.27;;;7.13;;
51566;SDS011;37657;53.182;5.638;2022-09-09T05:46:06;10.57;;;6.82;;
51566;SDS011;37657;53.182;5.638;2022-09-09T05:48:36;8.63;;;5.75;;
51566;SDS011;37657;53.182;5.638;2022-09-09T05:51:04;9.70;;;6.80;;
51566;SDS011;37657;53.182;5.638;2022-09-09T05:53:33;11.07;;;6.72;;
51566;SDS011;37657;53.182;5.638;2022-09-09T05:56:03;9.55;;;6.20;;
51566;SDS011;37657;53.182;5.638;2022-09-09T05:58:30;11.77;;;7.35;;
51566;SDS011;37657;53.182;5.638;2022-09-09T06:03:38;8.13;;;6.15;;
51566;SDS011;37657;53.182;5.638;2022-09-09T06:06:09;12.07;;;7.75;;
51566;SDS011;37657;53.182;5.638;2022-09-09T06:08:37;9.98;;;8.05;;
51566;SDS011;37657;53.182;5.638;2022-09-09T06:11:08;10.52;;;8.50;;
51566;SDS011;37657;53.182;5.638;2022-09-09T06:13:36;11.05;;;8.82;;
51566;SDS011;37657;53.182;5.638;2022-09-09T06:16:04;9.82;;;7.10;;
51566;SDS011;37657;53.182;5.638;2022-09-09T06:18:32;10.85;;;7.07;;
51566;SDS011;37657;53.182;5.638;2022-09-09T06:20:58;10.85;;;6.85;;
51566;SDS011;37657;53.182;5.638;2022-09-09T06:23:29;11.27;;;7.63;;
51566;SDS011;37657;53.182;5.638;2022-09-09T06:33:30;7.82;;;5.75;;
51566;SDS011;37657;53.182;5.638;2022-09-09T06:35:56;11.35;;;7.90;;
51566;SDS011;37657;53.182;5.638;2022-09-09T06:38:23;11.80;;;8.05;;
51566;SDS011;37657;53.182;5.638;2022-09-09T06:40:52;11.50;;;7.82;;
51566;SDS011;37657;53.182;5.638;2022-09-09T06:43:22;11.27;;;7.35;;
51566;SDS011;37657;53.182;5.638;2022-09-09T06:45:59;10.07;;;7.80;;
51566;SDS011;37657;53.182;5.638;2022-09-09T06:48:26;8.38;;;6.45;;
51566;SDS011;37657;53.182;5.638;2022-09-09T06:51:06;12.85;;;7.55;;
51566;SDS011;37657;53.182;5.638;2022-09-09T06:53:35;10.35;;;6.50;;
51566;SDS011;37657;53.182;5.638;2022-09-09T06:58:36;10.50;;;7.43;;
51566;SDS011;37657;53.182;5.638;2022-09-09T07:01:03;11.80;;;7.22;;
51566;SDS011;37657;53.182;5.638;2022-09-09T07:03:29;9.60;;;6.13;;
51566;SDS011;37657;53.182;5.638;2022-09-09T07:05:55;7.85;;;6.10;;
51566;SDS011;37657;53.182;5.638;2022-09-09T07:08:21;17.67;;;9.13;;
51566;SDS011;37657;53.182;5.638;2022-09-09T07:10:47;9.88;;;6.22;;
51566;SDS011;37657;53.182;5.638;2022-09-09T07:13:13;8.60;;;6.20;;
51566;SDS011;37657;53.182;5.638;2022-09-09T07:15:40;10.00;;;6.47;;
51566;SDS011;37657;53.182;5.638;2022-09-09T07:18:06;9.95;;;6.70;;
51566;SDS011;37657;53.182;5.638;2022-09-09T07:20:32;7.70;;;6.25;;
51566;SDS011;37657;53.182;5.638;2022-09-09T07:22:57;7.45;;;5.32;;
51566;SDS011;37657;53.182;5.638;2022-09-09T07:25:24;7.82;;;6.72;;
51566;SDS011;37657;53.182;5.638;2022-09-09T07:27:52;6.10;;;5.18;;
51566;SDS011;37657;53.182;5.638;2022-09-09T07:30:18;8.90;;;5.90;;
51566;SDS011;37657;53.182;5.638;2022-09-09T07:32:44;9.48;;;5.25;;
51566;SDS011;37657;53.182;5.638;2022-09-09T07:35:10;9.27;;;6.75;;
51566;SDS011;37657;53.182;5.638;2022-09-09T07:37:38;11.48;;;6.63;;
51566;SDS011;37657;53.182;5.638;2022-09-09T07:40:04;8.45;;;6.57;;
51566;SDS011;37657;53.182;5.638;2022-09-09T07:42:30;10.05;;;6.03;;
51566;SDS011;37657;53.182;5.638;2022-09-09T07:44:56;11.93;;;5.75;;
51566;SDS011;37657;53.182;5.638;2022-09-09T07:47:21;7.68;;;4.82;;
51566;SDS011;37657;53.182;5.638;2022-09-09T07:49:49;8.55;;;6.20;;
51566;SDS011;37657;53.182;5.638;2022-09-09T07:52:15;7.90;;;6.25;;
51566;SDS011;37657;53.182;5.638;2022-09-09T07:54:41;7.97;;;5.30;;
51566;SDS011;37657;53.182;5.638;2022-09-09T07:57:07;8.38;;;5.80;;
51566;SDS011;37657;53.182;5.638;2022-09-09T07:59:32;17.75;;;6.60;;
51566;SDS011;37657;53.182;5.638;2022-09-09T08:01:58;6.85;;;5.10;;
51566;SDS011;37657;53.182;5.638;2022-09-09T08:04:24;9.40;;;5.50;;
51566;SDS011;37657;53.182;5.638;2022-09-09T08:06:55;14.02;;;5.68;;
51566;SDS011;37657;53.182;5.638;2022-09-09T08:09:22;8.63;;;5.60;;
51566;SDS011;37657;53.182;5.638;2022-09-09T08:11:51;5.40;;;4.65;;
51566;SDS011;37657;53.182;5.638;2022-09-09T08:14:17;7.28;;;4.65;;
51566;SDS011;37657;53.182;5.638;2022-09-09T08:16:44;6.72;;;4.68;;
51566;SDS011;37657;53.182;5.638;2022-09-09T08:19:11;7.97;;;4.88;;
51566;SDS011;37657;53.182;5.638;2022-09-09T08:21:38;7.78;;;5.20;;
51566;SDS011;37657;53.182;5.638;2022-09-09T08:24:05;8.52;;;5.82;;
51566;SDS011;37657;53.182;5.638;2022-09-09T08:26:33;9.32;;;4.65;;
51566;SDS011;37657;53.182;5.638;2022-09-09T08:29:00;7.95;;;4.68;;
51566;SDS011;37657;53.182;5.638;2022-09-09T08:31:29;8.05;;;5.07;;
51566;SDS011;37657;53.182;5.638;2022-09-09T08:34:03;10.20;;;5.10;;
51566;SDS011;37657;53.182;5.638;2022-09-09T08:36:30;8.10;;;5.75;;
51566;SDS011;37657;53.182;5.638;2022-09-09T08:39:01;6.43;;;5.25;;
51566;SDS011;37657;53.182;5.638;2022-09-09T08:41:30;8.93;;;5.50;;
51566;SDS011;37657;53.182;5.638;2022-09-09T08:47:42;8.25;;;5.40;;
51566;SDS011;37657;53.182;5.638;2022-09-09T08:50:26;7.38;;;4.60;;
51566;SDS011;37657;53.182;5.638;2022-09-09T08:55:53;12.15;;;4.93;;
51566;SDS011;37657;53.182;5.638;2022-09-09T08:58:21;13.63;;;5.40;;
51566;SDS011;37657;53.182;5.638;2022-09-09T09:03:46;7.55;;;5.35;;
51566;SDS011;37657;53.182;5.638;2022-09-09T09:11:39;11.93;;;5.45;;
51566;SDS011;37657;53.182;5.638;2022-09-09T09:14:11;15.32;;;6.28;;
51566;SDS011;37657;53.182;5.638;2022-09-09T09:16:51;9.07;;;6.53;;
51566;SDS011;37657;53.182;5.638;2022-09-09T09:19:34;7.38;;;4.97;;
51566;SDS011;37657;53.182;5.638;2022-09-09T09:22:10;7.72;;;5.13;;
51566;SDS011;37657;53.182;5.638;2022-09-09T09:27:15;9.05;;;5.75;;
51566;SDS011;37657;53.182;5.638;2022-09-09T09:30:02;11.07;;;5.82;;
51566;SDS011;37657;53.182;5.638;2022-09-09T09:32:38;8.05;;;6.30;;
51566;SDS011;37657;53.182;5.638;2022-09-09T09:35:12;8.95;;;5.50;;
51566;SDS011;37657;53.182;5.638;2022-09-09T09:37:39;7.07;;;5.55;;
51566;SDS011;37657;53.182;5.638;2022-09-09T09:40:09;8.07;;;5.78;;
51566;SDS011;37657;53.182;5.638;2022-09-09T09:42:49;8.02;;;5.30;;
51566;SDS011;37657;53.182;5.638;2022-09-09T09:45:34;5.97;;;4.78;;
51566;SDS011;37657;53.182;5.638;2022-09-09T09:48:11;7.22;;;5.72;;
51566;SDS011;37657;53.182;5.638;2022-09-09T09:50:51;6.75;;;4.60;;
51566;SDS011;37657;53.182;5.638;2022-09-09T09:53:24;13.80;;;4.30;;
51566;SDS011;37657;53.182;5.638;2022-09-09T09:55:59;13.02;;;5.10;;
51566;SDS011;37657;53.182;5.638;2022-09-09T09:58:27;9.38;;;6.15;;
51566;SDS011;37657;53.182;5.638;2022-09-09T10:00:58;5.43;;;4.13;;
51566;SDS011;37657;53.182;5.638;2022-09-09T10:03:32;7.07;;;4.18;;
51566;SDS011;37657;53.182;5.638;2022-09-09T10:06:04;5.35;;;3.90;;
51566;SDS011;37657;53.182;5.638;2022-09-09T10:08:32;9.02;;;4.43;;
51566;SDS011;37657;53.182;5.638;2022-09-09T10:13:30;6.50;;;3.70;;
51566;SDS011;37657;53.182;5.638;2022-09-09T10:19:06;10.57;;;4.32;;
51566;SDS011;37657;53.182;5.638;2022-09-09T10:27:01;6.05;;;3.83;;
51566;SDS011;37657;53.182;5.638;2022-09-09T10:32:41;12.45;;;3.50;;
51566;SDS011;37657;53.182;5.638;2022-09-09T10:35:35;5.63;;;3.50;;
51566;SDS011;37657;53.182;5.638;2022-09-09T10:38:13;8.73;;;3.40;;
51566;SDS011;37657;53.182;5.638;2022-09-09T10:40:42;7.18;;;3.75;;
51566;SDS011;37657;53.182;5.638;2022-09-09T10:51:23;4.05;;;3.00;;
51566;SDS011;37657;53.182;5.638;2022-09-09T10:56:49;10.95;;;3.95;;
51566;SDS011;37657;53.182;5.638;2022-09-09T10:59:23;4.80;;;3.15;;
51566;SDS011;37657;53.182;5.638;2022-09-09T11:04:37;9.35;;;3.38;;
51566;SDS011;37657;53.182;5.638;2022-09-09T11:07:10;6.10;;;2.78;;
51566;SDS011;37657;53.182;5.638;2022-09-09T11:09:45;7.93;;;4.20;;
51566;SDS011;37657;53.182;5.638;2022-09-09T11:12:19;4.28;;;3.10;;
51566;SDS011;37657;53.182;5.638;2022-09-09T11:14:49;8.90;;;3.97;;
51566;SDS011;37657;53.182;5.638;2022-09-09T11:17:22;9.18;;;3.80;;
51566;SDS011;37657;53.182;5.638;2022-09-09T11:19:51;6.22;;;3.25;;
51566;SDS011;37657;53.182;5.638;2022-09-09T11:22:24;11.73;;;3.10;;
51566;SDS011;37657;53.182;5.638;2022-09-09T11:25:04;6.80;;;3.90;;
51566;SDS011;37657;53.182;5.638;2022-09-09T11:33:49;7.63;;;4.10;;
51566;SDS011;37657;53.182;5.638;2022-09-09T11:36:34;6.68;;;4.30;;
51566;SDS011;37657;53.182;5.638;2022-09-09T11:39:28;6.38;;;3.15;;
51566;SDS011;37657;53.182;5.638;2022-09-09T11:44:38;8.40;;;3.45;;
51566;SDS011;37657;53.182;5.638;2022-09-09T11:47:15;7.05;;;3.17;;
51566;SDS011;37657;53.182;5.638;2022-09-09T11:49:55;4.95;;;3.33;;
51566;SDS011;37657;53.182;5.638;2022-09-09T11:52:38;4.85;;;2.95;;
51566;SDS011;37657;53.182;5.638;2022-09-09T11:55:26;4.90;;;2.88;;
51566;SDS011;37657;53.182;5.638;2022-09-09T12:00:39;6.03;;;3.20;;
51566;SDS011;37657;53.182;5.638;2022-09-09T12:05:53;8.32;;;4.78;;
51566;SDS011;37657;53.182;5.638;2022-09-09T12:08:24;6.55;;;3.28;;
51566;SDS011;37657;53.182;5.638;2022-09-09T12:10:54;6.85;;;2.92;;
51566;SDS011;37657;53.182;5.638;2022-09-09T12:13:22;6.65;;;2.60;;
51566;SDS011;37657;53.182;5.638;2022-09-09T12:15:56;5.45;;;4.30;;
51566;SDS011;37657;53.182;5.638;2022-09-09T12:21:11;6.00;;;3.17;;
51566;SDS011;37657;53.182;5.638;2022-09-09T12:23:44;8.45;;;3.08;;
51566;SDS011;37657;53.182;5.638;2022-09-09T12:31:29;6.63;;;2.85;;
51566;SDS011;37657;53.182;5.638;2022-09-09T12:34:06;8.82;;;3.08;;
51566;SDS011;37657;53.182;5.638;2022-09-09T12:36:44;10.60;;;3.97;;
51566;SDS011;37657;53.182;5.638;2022-09-09T12:39:27;4.93;;;3.10;;
51566;SDS011;37657;53.182;5.638;2022-09-09T12:41:55;6.22;;;3.42;;
51566;SDS011;37657;53.182;5.638;2022-09-09T12:44:22;4.80;;;2.67;;
51566;SDS011;37657;53.182;5.638;2022-09-09T12:46:49;6.63;;;3.83;;
51566;SDS011;37657;53.182;5.638;2022-09-09T12:52:01;15.73;;;3.45;;
51566;SDS011;37657;53.182;5.638;2022-09-09T12:54:38;5.20;;;3.33;;
51566;SDS011;37657;53.182;5.638;2022-09-09T12:57:12;5.75;;;3.25;;
51566;SDS011;37657;53.182;5.638;2022-09-09T12:59:40;4.22;;;2.58;;
51566;SDS011;37657;53.182;5.638;2022-09-09T13:02:17;7.65;;;3.33;;
51566;SDS011;37657;53.182;5.638;2022-09-09T13:04:44;11.73;;;4.30;;
51566;SDS011;37657;53.182;5.638;2022-09-09T13:07:11;8.07;;;4.95;;
51566;SDS011;37657;53.182;5.638;2022-09-09T13:09:38;8.73;;;3.83;;
51566;SDS011;37657;53.182;5.638;2022-09-09T13:12:04;7.78;;;3.70;;
51566;SDS011;37657;53.182;5.638;2022-09-09T13:14:35;5.25;;;3.45;;
51566;SDS011;37657;53.182;5.638;2022-09-09T13:17:05;4.25;;;2.63;;
51566;SDS011;37657;53.182;5.638;2022-09-09T13:19:36;9.10;;;3.50;;
51566;SDS011;37657;53.182;5.638;2022-09-09T13:22:13;7.40;;;3.80;;
51566;SDS011;37657;53.182;5.638;2022-09-09T13:24:45;5.05;;;3.03;;
51566;SDS011;37657;53.182;5.638;2022-09-09T13:29:54;6.00;;;3.30;;
51566;SDS011;37657;53.182;5.638;2022-09-09T13:32:21;6.53;;;3.75;;
51566;SDS011;37657;53.182;5.638;2022-09-09T13:34:52;5.18;;;2.53;;
51566;SDS011;37657;53.182;5.638;2022-09-09T13:37:39;6.47;;;2.60;;
51566;SDS011;37657;53.182;5.638;2022-09-09T13:40:06;7.88;;;3.78;;
51566;SDS011;37657;53.182;5.638;2022-09-09T13:42:43;6.78;;;2.50;;
51566;SDS011;37657;53.182;5.638;2022-09-09T13:45:19;5.00;;;2.30;;
51566;SDS011;37657;53.182;5.638;2022-09-09T13:47:47;5.00;;;2.42;;
51566;SDS011;37657;53.182;5.638;2022-09-09T13:50:24;3.38;;;1.55;;
51566;SDS011;37657;53.182;5.638;2022-09-09T13:52:54;4.78;;;2.92;;
51566;SDS011;37657;53.182;5.638;2022-09-09T13:55:23;5.95;;;2.00;;
51566;SDS011;37657;53.182;5.638;2022-09-09T14:00:21;5.63;;;3.78;;
51566;SDS011;37657;53.182;5.638;2022-09-09T14:02:49;4.30;;;3.35;;
51566;SDS011;37657;53.182;5.638;2022-09-09T14:05:15;5.60;;;4.13;;
51566;SDS011;37657;53.182;5.638;2022-09-09T14:07:41;5.05;;;2.60;;
51566;SDS011;37657;53.182;5.638;2022-09-09T14:10:08;6.00;;;3.60;;
51566;SDS011;37657;53.182;5.638;2022-09-09T14:12:34;5.00;;;3.13;;
51566;SDS011;37657;53.182;5.638;2022-09-09T14:15:01;5.57;;;3.13;;
51566;SDS011;37657;53.182;5.638;2022-09-09T14:17:27;7.10;;;3.10;;
51566;SDS011;37657;53.182;5.638;2022-09-09T14:19:56;4.32;;;2.53;;
51566;SDS011;37657;53.182;5.638;2022-09-09T14:22:22;7.22;;;3.33;;
51566;SDS011;37657;53.182;5.638;2022-09-09T14:24:48;3.60;;;2.35;;
51566;SDS011;37657;53.182;5.638;2022-09-09T14:27:14;3.95;;;2.70;;
51566;SDS011;37657;53.182;5.638;2022-09-09T14:29:41;5.85;;;2.63;;
51566;SDS011;37657;53.182;5.638;2022-09-09T14:32:08;6.90;;;2.20;;
51566;SDS011;37657;53.182;5.638;2022-09-09T14:34:34;4.45;;;3.70;;
51566;SDS011;37657;53.182;5.638;2022-09-09T14:37:00;4.15;;;3.40;;
51566;SDS011;37657;53.182;5.638;2022-09-09T14:39:26;5.18;;;2.55;;
51566;SDS011;37657;53.182;5.638;2022-09-09T14:41:51;4.25;;;2.22;;
51566;SDS011;37657;53.182;5.638;2022-09-09T14:44:17;10.65;;;3.47;;
51566;SDS011;37657;53.182;5.638;2022-09-09T14:46:43;5.57;;;2.50;;
51566;SDS011;37657;53.182;5.638;2022-09-09T14:49:08;3.80;;;2.55;;
51566;SDS011;37657;53.182;5.638;2022-09-09T14:51:35;6.18;;;3.97;;
51566;SDS011;37657;53.182;5.638;2022-09-09T14:54:01;5.03;;;3.13;;
51566;SDS011;37657;53.182;5.638;2022-09-09T14:56:28;4.63;;;3.00;;
51566;SDS011;37657;53.182;5.638;2022-09-09T14:58:56;4.10;;;2.58;;
51566;SDS011;37657;53.182;5.638;2022-09-09T15:01:22;3.17;;;1.90;;
51566;SDS011;37657;53.182;5.638;2022-09-09T15:03:52;5.22;;;2.63;;
51566;SDS011;37657;53.182;5.638;2022-09-09T15:06:23;3.13;;;2.25;;
51566;SDS011;37657;53.182;5.638;2022-09-09T15:08:50;3.08;;;2.20;;
51566;SDS011;37657;53.182;5.638;2022-09-09T15:11:17;2.42;;;1.98;;
51566;SDS011;37657;53.182;5.638;2022-09-09T15:13:43;3.83;;;2.25;;
51566;SDS011;37657;53.182;5.638;2022-09-09T15:16:16;4.10;;;2.55;;
51566;SDS011;37657;53.182;5.638;2022-09-09T15:18:43;4.88;;;2.65;;
51566;SDS011;37657;53.182;5.638;2022-09-09T15:21:15;2.88;;;2.30;;
51566;SDS011;37657;53.182;5.638;2022-09-09T15:23:44;6.78;;;2.25;;
51566;SDS011;37657;53.182;5.638;2022-09-09T15:26:10;3.67;;;2.10;;
51566;SDS011;37657;53.182;5.638;2022-09-09T15:28:39;4.47;;;2.28;;
51566;SDS011;37657;53.182;5.638;2022-09-09T15:31:13;6.55;;;2.40;;
51566;SDS011;37657;53.182;5.638;2022-09-09T15:33:46;3.60;;;2.22;;
51566;SDS011;37657;53.182;5.638;2022-09-09T15:36:32;3.45;;;2.63;;
51566;SDS011;37657;53.182;5.638;2022-09-09T15:38:59;4.32;;;3.33;;
51566;SDS011;37657;53.182;5.638;2022-09-09T15:41:26;8.38;;;2.67;;
51566;SDS011;37657;53.182;5.638;2022-09-09T15:43:52;4.43;;;2.75;;
51566;SDS011;37657;53.182;5.638;2022-09-09T15:46:29;8.90;;;3.78;;
51566;SDS011;37657;53.182;5.638;2022-09-09T15:49:13;5.32;;;2.50;;
51566;SDS011;37657;53.182;5.638;2022-09-09T15:51:44;6.80;;;3.42;;
51566;SDS011;37657;53.182;5.638;2022-09-09T15:54:12;4.25;;;2.90;;
51566;SDS011;37657;53.182;5.638;2022-09-09T15:56:42;5.57;;;3.78;;
51566;SDS011;37657;53.182;5.638;2022-09-09T15:59:08;5.55;;;3.97;;
51566;SDS011;37657;53.182;5.638;2022-09-09T16:01:34;5.78;;;2.97;;
51566;SDS011;37657;53.182;5.638;2022-09-09T16:04:00;17.92;;;9.65;;
51566;SDS011;37657;53.182;5.638;2022-09-09T16:06:26;14.40;;;6.43;;
51566;SDS011;37657;53.182;5.638;2022-09-09T16:08:54;15.98;;;8.75;;
51566;SDS011;37657;53.182;5.638;2022-09-09T16:11:25;21.65;;;11.25;;
51566;SDS011;37657;53.182;5.638;2022-09-09T16:13:53;8.35;;;3.75;;
51566;SDS011;37657;53.182;5.638;2022-09-09T16:16:20;6.43;;;2.85;;
51566;SDS011;37657;53.182;5.638;2022-09-09T16:18:48;5.70;;;2.28;;
51566;SDS011;37657;53.182;5.638;2022-09-09T16:23:50;4.97;;;2.92;;
51566;SDS011;37657;53.182;5.638;2022-09-09T16:26:18;4.60;;;2.50;;
51566;SDS011;37657;53.182;5.638;2022-09-09T16:28:45;6.18;;;4.07;;
51566;SDS011;37657;53.182;5.638;2022-09-09T16:31:13;4.18;;;3.55;;
51566;SDS011;37657;53.182;5.638;2022-09-09T16:33:44;7.22;;;2.47;;
51566;SDS011;37657;53.182;5.638;2022-09-09T16:36:17;5.22;;;3.10;;
51566;SDS011;37657;53.182;5.638;2022-09-09T16:38:44;7.35;;;3.97;;
51566;SDS011;37657;53.182;5.638;2022-09-09T16:41:10;3.78;;;2.75;;
51566;SDS011;37657;53.182;5.638;2022-09-09T16:43:37;3.03;;;1.95;;
51566;SDS011;37657;53.182;5.638;2022-09-09T16:46:08;3.47;;;1.95;;
51566;SDS011;37657;53.182;5.638;2022-09-09T16:48:37;3.55;;;2.25;;
51566;SDS011;37657;53.182;5.638;2022-09-09T16:51:07;3.55;;;2.30;;
51566;SDS011;37657;53.182;5.638;2022-09-09T16:53:36;3.22;;;2.22;;
51566;SDS011;37657;53.182;5.638;2022-09-09T16:56:09;9.60;;;4.00;;
51566;SDS011;37657;53.182;5.638;2022-09-09T16:58:40;3.80;;;2.60;;
51566;SDS011;37657;53.182;5.638;2022-09-09T17:01:08;9.60;;;2.38;;
51566;SDS011;37657;53.182;5.638;2022-09-09T17:03:35;4.40;;;2.50;;
51566;SDS011;37657;53.182;5.638;2022-09-09T17:06:01;5.05;;;3.08;;
51566;SDS011;37657;53.182;5.638;2022-09-09T17:08:30;4.40;;;2.70;;
51566;SDS011;37657;53.182;5.638;2022-09-09T17:10:56;4.53;;;3.15;;
51566;SDS011;37657;53.182;5.638;2022-09-09T17:13:23;4.47;;;2.78;;